createdAt,value
2022-12-06T00:02:00.899Z,2.33
2022-12-06T00:04:31.710Z,2.34
2022-12-06T00:07:03.031Z,2.34
2022-12-06T00:09:35.797Z,2.30
2022-12-06T00:12:07.137Z,2.31
2022-12-06T00:14:53.905Z,2.24
2022-12-06T00:17:25.676Z,2.31
2022-12-06T00:20:01.131Z,2.38
2022-12-06T00:28:19.056Z,2.40
2022-12-06T00:30:49.448Z,2.40
2022-12-06T00:33:24.116Z,2.44
2022-12-06T00:36:02.328Z,2.44
2022-12-06T00:41:26.024Z,2.48
2022-12-06T00:49:28.686Z,2.45
2022-12-06T00:54:59.309Z,2.47
2022-12-06T01:01:43.688Z,2.44
2022-12-06T01:07:18.140Z,2.49
2022-12-06T01:12:32.641Z,2.42
2022-12-06T01:17:46.885Z,2.48
2022-12-06T01:22:57.788Z,2.51
2022-12-06T01:28:12.360Z,2.52
2022-12-06T01:30:46.542Z,2.51
2022-12-06T01:36:19.089Z,2.48
2022-12-06T01:38:53.005Z,2.45
2022-12-06T01:41:22.475Z,2.49
2022-12-06T01:46:56.548Z,2.47
2022-12-06T01:49:32.203Z,2.42
2022-12-06T01:52:03.301Z,2.47
2022-12-06T01:54:30.741Z,2.48
2022-12-06T02:02:51.580Z,2.48
2022-12-06T02:05:22.026Z,2.55
2022-12-06T02:08:06.514Z,2.47
2022-12-06T02:13:49.904Z,2.49
2022-12-06T02:19:41.861Z,2.45
2022-12-06T02:22:31.592Z,2.47
2022-12-06T02:26:05.671Z,2.48
2022-12-06T02:29:04.675Z,2.42
2022-12-06T02:31:53.021Z,2.44
2022-12-06T02:34:48.943Z,2.47
2022-12-06T02:37:25.618Z,2.47
2022-12-06T02:39:55.439Z,2.38
2022-12-06T02:42:40.089Z,2.47
2022-12-06T02:45:21.286Z,2.37
2022-12-06T02:47:50.245Z,2.48
2022-12-06T02:53:07.393Z,2.47
2022-12-06T02:55:43.656Z,2.54
2022-12-06T02:58:13.681Z,2.49
2022-12-06T03:03:54.871Z,2.44
2022-12-06T03:12:22.439Z,2.47
2022-12-06T03:15:26.075Z,2.54
2022-12-06T03:20:43.312Z,2.51
2022-12-06T03:23:21.987Z,2.49
2022-12-06T03:25:50.162Z,2.52
2022-12-06T03:31:05.177Z,2.58
2022-12-06T03:33:34.343Z,2.64
2022-12-06T03:36:02.629Z,2.71
2022-12-06T03:38:45.808Z,2.62
2022-12-06T03:41:16.359Z,2.62
2022-12-06T03:49:54.303Z,2.65
2022-12-06T03:52:32.135Z,2.66
2022-12-06T03:54:58.979Z,2.68
2022-12-06T04:00:10.300Z,2.77
2022-12-06T04:02:37.241Z,2.77
2022-12-06T04:05:07.466Z,2.81
2022-12-06T04:07:34.259Z,2.82
2022-12-06T04:10:03.963Z,2.78
2022-12-06T04:12:51.031Z,2.74
2022-12-06T04:21:24.608Z,2.82
2022-12-06T04:23:52.177Z,2.86
2022-12-06T04:26:26.342Z,2.81
2022-12-06T04:29:17.137Z,2.85
2022-12-06T04:32:02.654Z,2.86
2022-12-06T04:34:47.861Z,2.82
2022-12-06T04:37:33.143Z,2.85
2022-12-06T04:40:00.072Z,2.92
2022-12-06T04:42:45.987Z,2.88
2022-12-06T04:50:50.276Z,2.92
2022-12-06T04:56:01.765Z,2.81
2022-12-06T05:01:13.028Z,2.93
2022-12-06T05:06:20.193Z,2.89
2022-12-06T05:11:27.833Z,2.91
2022-12-06T05:13:54.452Z,2.91
2022-12-06T05:19:01.601Z,2.98
2022-12-06T05:24:09.119Z,3.00
2022-12-06T05:26:38.314Z,2.98
2022-12-06T05:29:04.948Z,3.05
2022-12-06T05:31:31.704Z,2.96
2022-12-06T05:33:58.384Z,3.03
2022-12-06T05:39:07.715Z,3.09
2022-12-06T05:44:18.823Z,3.10
2022-12-06T05:49:28.351Z,3.15
2022-12-06T05:51:55.631Z,3.07
2022-12-06T05:54:32.121Z,3.17
2022-12-06T05:56:58.686Z,3.22
2022-12-06T06:02:07.121Z,3.26
2022-12-06T06:04:33.769Z,3.22
2022-12-06T06:07:08.880Z,3.23
2022-12-06T06:09:38.539Z,3.17
2022-12-06T06:14:47.620Z,3.27
2022-12-06T06:17:14.610Z,3.24
2022-12-06T06:19:51.369Z,3.28
2022-12-06T06:22:24.354Z,3.30
2022-12-06T06:24:55.895Z,3.28
2022-12-06T06:27:22.841Z,3.27
2022-12-06T06:29:51.141Z,3.33
2022-12-06T06:32:21.115Z,3.33
2022-12-06T06:34:49.348Z,3.30
2022-12-06T06:39:58.191Z,3.40
2022-12-06T06:42:25.108Z,3.33
2022-12-06T06:44:54.591Z,3.37
2022-12-06T06:47:22.363Z,3.37
2022-12-06T06:49:49.039Z,3.38
2022-12-06T06:54:57.506Z,3.50
2022-12-06T07:00:05.446Z,3.47
2022-12-06T07:02:32.044Z,3.53
2022-12-06T07:05:03.712Z,3.48
2022-12-06T07:07:31.974Z,3.54
2022-12-06T07:09:58.994Z,3.56
2022-12-06T07:15:09.264Z,3.58
2022-12-06T07:20:16.813Z,3.64
2022-12-06T07:25:23.954Z,3.66
2022-12-06T07:27:50.560Z,3.61
2022-12-06T07:33:42.759Z,3.75
2022-12-06T07:38:54.043Z,3.71
2022-12-06T07:41:50.783Z,3.68
2022-12-06T07:44:37.799Z,3.71
2022-12-06T07:49:47.887Z,3.70
2022-12-06T07:54:55.776Z,3.75
2022-12-06T07:57:23.616Z,3.82
2022-12-06T08:02:34.210Z,3.92
2022-12-06T08:05:06.911Z,3.88
2022-12-06T08:07:38.222Z,3.82
2022-12-06T08:12:46.965Z,3.92
2022-12-06T08:15:14.821Z,3.95
2022-12-06T08:17:41.921Z,3.99
2022-12-06T08:20:09.776Z,3.92
2022-12-06T08:22:36.262Z,3.92
2022-12-06T08:25:11.196Z,3.96
2022-12-06T08:27:37.712Z,4.22
2022-12-06T08:30:05.170Z,4.09
2022-12-06T08:35:12.793Z,4.08
2022-12-06T08:37:44.447Z,4.17
2022-12-06T08:40:13.852Z,4.25
2022-12-06T08:42:54.940Z,4.23
2022-12-06T08:45:21.742Z,4.30
2022-12-06T08:47:48.544Z,4.22
2022-12-06T08:53:03.475Z,4.52
2022-12-06T08:58:13.498Z,4.33
2022-12-06T09:00:47.800Z,4.50
2022-12-06T09:03:14.669Z,4.64
2022-12-06T09:05:41.922Z,4.56
2022-12-06T09:08:17.659Z,4.45
2022-12-06T09:10:44.350Z,4.50
2022-12-06T09:13:10.815Z,4.50
2022-12-06T09:15:42.196Z,4.85
2022-12-06T09:18:08.731Z,5.09
2022-12-06T09:20:38.782Z,5.34
2022-12-06T09:23:05.279Z,5.12
2022-12-06T09:25:31.794Z,5.18
2022-12-06T09:28:08.157Z,4.97
2022-12-06T09:30:39.791Z,4.78
2022-12-06T09:33:15.891Z,4.68
2022-12-06T09:35:44.013Z,4.63
2022-12-06T09:38:10.559Z,4.68
2022-12-06T09:41:06.423Z,4.77
2022-12-06T09:43:50.835Z,4.95
2022-12-06T09:46:51.732Z,4.77
2022-12-06T09:49:24.055Z,4.81
2022-12-06T09:52:02.475Z,4.81
2022-12-06T09:55:00.320Z,4.80
2022-12-06T09:57:36.322Z,4.98
2022-12-06T10:00:14.546Z,5.19
2022-12-06T10:03:02.419Z,4.95
2022-12-06T10:06:02.799Z,4.99
2022-12-06T10:08:29.609Z,4.91
2022-12-06T10:11:08.985Z,4.78
2022-12-06T10:13:55.894Z,4.84
2022-12-06T10:16:22.581Z,4.84
2022-12-06T10:19:22.858Z,4.85
2022-12-06T10:22:25.818Z,4.89
2022-12-06T10:25:22.086Z,5.07
2022-12-06T10:27:54.871Z,4.80
2022-12-06T10:30:21.575Z,4.87
2022-12-06T10:33:03.833Z,4.78
2022-12-06T10:35:42.427Z,4.91
2022-12-06T10:38:32.683Z,4.87
2022-12-06T10:41:23.362Z,4.85
2022-12-06T10:43:55.372Z,4.95
2022-12-06T10:47:01.190Z,5.05
2022-12-06T10:49:35.613Z,4.98
2022-12-06T10:52:18.695Z,4.98
2022-12-06T10:54:55.806Z,4.92
2022-12-06T10:57:41.536Z,5.05
2022-12-06T11:00:21.914Z,5.09
2022-12-06T11:03:12.832Z,5.05
2022-12-06T11:05:48.255Z,5.08
2022-12-06T11:08:27.066Z,5.01
2022-12-06T11:10:56.224Z,5.11
2022-12-06T11:13:49.760Z,5.25
2022-12-06T11:16:31.964Z,5.24
2022-12-06T11:19:19.244Z,5.24
2022-12-06T11:21:54.231Z,5.18
2022-12-06T11:24:33.385Z,5.16
2022-12-06T11:27:16.206Z,5.19
2022-12-06T11:29:45.099Z,5.19
2022-12-06T11:32:13.257Z,5.24
2022-12-06T11:34:46.095Z,5.25
2022-12-06T11:37:18.357Z,5.31
2022-12-06T11:39:45.441Z,5.31
2022-12-06T11:42:15.083Z,5.35
2022-12-06T11:44:50.969Z,5.29
2022-12-06T11:47:21.925Z,5.28
2022-12-06T11:49:51.624Z,5.26
2022-12-06T11:52:44.321Z,5.31
2022-12-06T11:55:24.072Z,5.28
2022-12-06T11:58:01.279Z,5.28
2022-12-06T12:00:30.944Z,5.28
2022-12-06T12:02:58.018Z,5.24
2022-12-06T12:05:26.296Z,5.34
2022-12-06T12:07:59.184Z,5.38
2022-12-06T12:10:34.387Z,5.28
2022-12-06T12:13:31.662Z,5.34
2022-12-06T12:16:01.422Z,5.38
2022-12-06T12:18:37.952Z,5.31
2022-12-06T12:21:07.144Z,5.39
2022-12-06T12:23:38.627Z,5.55
2022-12-06T12:26:16.212Z,5.49
2022-12-06T12:28:44.830Z,5.56
2022-12-06T12:31:23.134Z,5.62
2022-12-06T12:34:20.543Z,5.62
2022-12-06T12:36:54.457Z,5.67
2022-12-06T12:39:30.111Z,5.53
2022-12-06T12:41:56.704Z,5.59
2022-12-06T12:44:39.330Z,5.65
2022-12-06T12:47:20.320Z,5.77
2022-12-06T12:50:24.101Z,5.80
2022-12-06T12:52:51.557Z,5.84
2022-12-06T12:55:22.705Z,5.90
2022-12-06T12:58:00.440Z,5.78
2022-12-06T13:06:00.126Z,5.98
2022-12-06T13:11:15.202Z,6.10
2022-12-06T13:13:49.689Z,6.01
2022-12-06T13:16:23.675Z,6.07
2022-12-06T13:18:55.871Z,6.07
2022-12-06T13:21:34.614Z,6.04
2022-12-06T13:24:10.059Z,6.03
2022-12-06T13:26:48.856Z,5.98
2022-12-06T13:29:22.187Z,5.98
2022-12-06T13:31:53.223Z,6.03
2022-12-06T16:49:46.860Z,5.53
2022-12-06T16:52:03.377Z,5.50
2022-12-06T16:54:29.783Z,5.38
2022-12-06T16:56:56.191Z,5.46
2022-12-06T16:59:22.627Z,5.43
2022-12-06T17:01:54.395Z,5.36
2022-12-06T17:04:20.928Z,5.34
2022-12-06T17:06:48.380Z,5.38
2022-12-06T17:09:18.802Z,5.42
2022-12-06T17:12:03.398Z,5.32
2022-12-06T17:14:30.696Z,5.34
2022-12-06T17:16:59.855Z,5.28
2022-12-06T17:19:28.413Z,5.31
2022-12-06T17:21:55.413Z,5.29
2022-12-06T17:24:23.746Z,5.26
2022-12-06T17:26:50.230Z,5.25
2022-12-06T17:29:17.547Z,5.25
2022-12-06T17:31:44.535Z,5.28
2022-12-06T17:34:15.361Z,5.35
2022-12-06T17:36:42.778Z,5.36
2022-12-06T17:39:10.207Z,5.39
2022-12-06T17:41:55.260Z,5.46
2022-12-06T17:44:21.736Z,5.46
2022-12-06T17:46:48.419Z,5.34
2022-12-06T17:49:18.325Z,5.28
2022-12-06T17:51:45.306Z,5.39
2022-12-06T17:54:12.592Z,5.35
2022-12-06T17:56:46.726Z,5.34
2022-12-06T17:59:22.168Z,5.28
2022-12-06T18:04:36.718Z,5.34
2022-12-06T18:07:03.249Z,5.35
2022-12-06T18:09:30.861Z,5.39
2022-12-06T18:11:57.468Z,5.38
2022-12-06T18:14:24.121Z,5.46
2022-12-06T18:16:56.002Z,5.38
2022-12-06T18:19:23.243Z,5.46
2022-12-06T18:21:52.174Z,5.38
2022-12-06T18:24:22.126Z,5.35
2022-12-06T18:26:50.702Z,5.40
2022-12-06T18:29:20.348Z,5.32
2022-12-06T18:31:47.373Z,5.43
2022-12-06T18:34:14.372Z,5.39
2022-12-06T18:36:41.371Z,5.38
2022-12-06T18:39:14.378Z,5.38
2022-12-06T18:41:42.634Z,5.40
2022-12-06T18:44:10.311Z,5.39
2022-12-06T18:46:38.916Z,5.35
2022-12-06T18:49:06.465Z,5.38
2022-12-06T18:51:34.996Z,5.40
2022-12-06T18:58:40.476Z,5.16
2022-12-06T19:01:11.133Z,5.31
2022-12-06T19:03:37.820Z,5.31
2022-12-06T19:06:09.604Z,5.28
2022-12-06T19:08:40.063Z,5.28
2022-12-06T19:11:07.575Z,5.25
2022-12-06T19:13:34.017Z,5.24
2022-12-06T19:16:02.695Z,5.24
2022-12-06T19:18:29.189Z,5.25
2022-12-06T19:21:02.063Z,5.22
2022-12-06T19:23:29.497Z,5.19
2022-12-06T19:26:02.874Z,5.25
2022-12-06T19:28:31.288Z,5.24
2022-12-06T19:31:03.427Z,5.26
2022-12-06T19:33:33.959Z,5.32
2022-12-06T19:36:03.652Z,5.32
2022-12-06T19:38:30.666Z,5.31
2022-12-06T19:40:57.233Z,5.26
2022-12-06T19:43:45.331Z,5.42
2022-12-06T19:46:17.930Z,5.35
2022-12-06T19:48:44.544Z,5.39
2022-12-06T19:51:11.163Z,5.38
2022-12-06T19:53:39.259Z,5.36
2022-12-06T19:56:08.123Z,5.43
2022-12-06T19:58:34.757Z,5.43
2022-12-06T20:01:09.453Z,5.39
2022-12-06T20:03:36.757Z,5.38
2022-12-06T20:06:05.915Z,5.38
2022-12-06T20:08:32.531Z,5.34
2022-12-06T20:11:10.766Z,5.34
2022-12-06T20:13:37.332Z,5.34
2022-12-06T20:16:05.064Z,5.34
2022-12-06T20:18:32.128Z,5.34
2022-12-06T20:21:00.905Z,5.31
2022-12-06T20:23:27.909Z,5.28
2022-12-06T20:25:57.588Z,5.35
2022-12-06T20:28:24.017Z,5.34
2022-12-06T20:30:50.754Z,5.39
2022-12-06T20:33:17.289Z,5.32
2022-12-06T20:35:43.890Z,5.39
2022-12-06T20:38:10.377Z,5.32
2022-12-06T20:40:36.882Z,5.32
2022-12-06T20:43:03.361Z,5.35
2022-12-06T20:45:29.848Z,5.35
2022-12-06T20:47:56.403Z,5.25
2022-12-06T20:50:23.064Z,5.31
2022-12-06T20:52:49.884Z,5.28
2022-12-06T20:55:16.547Z,5.29
2022-12-06T20:57:43.116Z,5.25
2022-12-06T21:00:11.671Z,5.25
2022-12-06T21:02:38.587Z,5.28
2022-12-06T21:05:05.567Z,5.32
2022-12-06T21:07:32.052Z,5.29
2022-12-06T21:09:58.767Z,5.24
2022-12-06T21:12:25.444Z,5.18
2022-12-06T21:14:52.379Z,5.09
2022-12-06T21:17:18.885Z,5.14
2022-12-06T21:19:45.781Z,4.91
2022-12-06T21:22:12.222Z,4.95
2022-12-06T21:24:39.479Z,4.80
2022-12-06T21:27:05.968Z,4.80
2022-12-06T21:29:32.643Z,4.84
2022-12-06T21:34:46.421Z,4.83
2022-12-06T21:37:20.693Z,4.78
2022-12-06T21:39:47.673Z,4.78
2022-12-06T21:42:15.711Z,4.77
2022-12-06T21:44:47.156Z,4.68
2022-12-06T21:47:13.703Z,4.81
2022-12-06T21:49:40.216Z,4.80
2022-12-06T21:52:09.424Z,4.85
2022-12-06T21:54:36.361Z,4.89
2022-12-06T21:57:02.920Z,4.91
2022-12-06T21:59:29.425Z,4.95
2022-12-06T22:01:56.131Z,4.92
2022-12-06T22:04:22.691Z,5.01
2022-12-06T22:06:49.267Z,5.03
2022-12-06T22:09:15.756Z,5.01
2022-12-06T22:11:42.596Z,4.99
2022-12-06T22:14:12.657Z,5.04
2022-12-06T22:16:39.211Z,4.98
2022-12-06T22:19:05.808Z,5.01
2022-12-06T22:21:33.533Z,5.04
2022-12-06T22:24:00.815Z,5.05
2022-12-06T22:26:29.866Z,5.05
2022-12-06T22:28:58.123Z,5.11
2022-12-06T22:31:27.380Z,5.08
2022-12-06T22:33:54.059Z,5.14
2022-12-06T22:36:21.811Z,5.15
2022-12-06T22:38:52.850Z,5.16
2022-12-06T22:41:21.316Z,5.25
2022-12-06T22:43:57.363Z,5.22
2022-12-06T22:46:26.361Z,5.15
2022-12-06T22:48:53.094Z,5.09
2022-12-06T22:51:25.312Z,5.05
2022-12-06T22:53:55.046Z,5.03
2022-12-06T22:56:22.132Z,4.98
2022-12-06T22:58:49.165Z,5.01
2022-12-06T23:01:18.991Z,5.07
2022-12-06T23:03:50.709Z,5.04
2022-12-06T23:06:19.660Z,5.04
2022-12-06T23:08:46.518Z,5.07
2022-12-06T23:11:23.703Z,5.12
2022-12-06T23:13:50.224Z,5.08
2022-12-06T23:16:20.167Z,5.11
2022-12-06T23:18:47.251Z,5.12
2022-12-06T23:21:26.012Z,5.11
2022-12-06T23:23:55.196Z,5.12
2022-12-06T23:26:53.164Z,5.09
2022-12-06T23:29:22.767Z,4.99
2022-12-06T23:31:49.423Z,5.07
2022-12-06T23:34:22.479Z,5.09
2022-12-06T23:36:49.699Z,5.15
2022-12-06T23:39:16.787Z,5.18
2022-12-06T23:41:43.543Z,5.21
2022-12-06T23:44:12.000Z,5.16
2022-12-06T23:46:39.824Z,5.16
2022-12-06T23:49:08.061Z,5.12
2022-12-06T23:51:37.200Z,5.16
2022-12-06T23:54:05.693Z,5.21
2022-12-06T23:56:37.495Z,5.21
2022-12-06T23:59:08.634Z,5.15
